Time;durP1;ratioP1;P1;durP2;ratioP2;P2;SDS_P1;SDS_P2;PMS_P1;PMS_P2;Temp;Humidity;BMP_temperature;BMP_pressure;BME280_temperature;BME280_humidity;BME280_pressure;Samples;Min_cycle;Max_cycle;Signal;HPM_P1;HPM_P2
2024/01/25 00:01:40;;;;;;;0.40;0.10;;;;;;;;;;5008928;28;20202;-63
2024/01/25 00:04:07;;;;;;;1.20;0.10;;;;;;;;;;5002048;28;20239;-63
2024/01/25 00:06:34;;;;;;;0.00;0.00;;;;;;;;;;5004465;28;20210;-63
2024/01/25 00:09:01;;;;;;;0.10;0.10;;;;;;;;;;5001056;28;20276;-63
2024/01/25 00:11:31;;;;;;;1.63;0.17;;;;;;;;;;4999474;28;20790;-65
2024/01/25 00:14:00;;;;;;;0.17;0.00;;;;;;;;;;5014726;28;20741;-63
2024/01/25 00:16:27;;;;;;;0.10;0.10;;;;;;;;;;5014112;28;20256;-64
2024/01/25 00:18:54;;;;;;;0.93;0.03;;;;;;;;;;5013894;28;20202;-63
2024/01/25 00:21:21;;;;;;;1.70;0.00;;;;;;;;;;4993646;28;20738;-64
2024/01/25 00:23:49;;;;;;;0.83;0.20;;;;;;;;;;5023776;28;20204;-63
2024/01/25 00:26:16;;;;;;;0.93;0.03;;;;;;;;;;5032683;28;20205;-64
2024/01/25 00:28:43;;;;;;;0.23;0.00;;;;;;;;;;5033217;28;20277;-64
2024/01/25 00:31:12;;;;;;;0.97;0.10;;;;;;;;;;5033261;28;20205;-64
2024/01/25 00:33:39;;;;;;;0.50;0.50;;;;;;;;;;5018908;28;20204;-64
2024/01/25 00:36:07;;;;;;;0.00;0.00;;;;;;;;;;5025750;28;20271;-64
2024/01/25 00:38:35;;;;;;;2.10;0.20;;;;;;;;;;5031008;28;20232;-63
2024/01/25 00:41:02;;;;;;;0.10;0.10;;;;;;;;;;5013250;28;20205;-63
2024/01/25 00:43:30;;;;;;;0.37;0.00;;;;;;;;;;5013400;28;20268;-64
2024/01/25 00:45:57;;;;;;;0.83;0.07;;;;;;;;;;5011569;28;20203;-63
2024/01/25 00:48:26;;;;;;;0.10;0.10;;;;;;;;;;5025090;28;20225;-63
2024/01/25 00:50:53;;;;;;;0.17;0.10;;;;;;;;;;5000016;28;20269;-64
2024/01/25 00:53:21;;;;;;;1.20;0.03;;;;;;;;;;5001848;28;20203;-63
2024/01/25 00:55:49;;;;;;;1.13;0.20;;;;;;;;;;5024237;28;20202;-63
2024/01/25 00:58:16;;;;;;;0.30;0.20;;;;;;;;;;5024080;28;20221;-64
2024/01/25 01:00:43;;;;;;;0.20;0.03;;;;;;;;;;5025077;28;20201;-63
2024/01/25 01:03:11;;;;;;;1.13;0.40;;;;;;;;;;5032623;28;20743;-64
2024/01/25 01:05:40;;;;;;;0.57;0.30;;;;;;;;;;5033353;28;20208;-63
2024/01/25 01:08:08;;;;;;;0.20;0.20;;;;;;;;;;5021858;28;20229;-63
2024/01/25 01:10:35;;;;;;;0.63;0.20;;;;;;;;;;5013531;28;20207;-64
2024/01/25 01:13:02;;;;;;;2.13;0.20;;;;;;;;;;5021856;28;20253;-64
2024/01/25 01:15:30;;;;;;;1.17;0.20;;;;;;;;;;5033025;28;20237;-63
2024/01/25 01:17:57;;;;;;;0.63;0.43;;;;;;;;;;5033133;28;20223;-64
2024/01/25 01:20:24;;;;;;;0.10;0.10;;;;;;;;;;5007902;28;20625;-64
2024/01/25 01:22:54;;;;;;;0.03;0.03;;;;;;;;;;5014061;28;20206;-63
2024/01/25 01:25:20;;;;;;;0.37;0.37;;;9.50;99.90;;;;;;5024489;28;20211;-63
2024/01/25 01:27:47;;;;;;;1.23;0.40;;;9.60;99.90;;;;;;5032251;28;20850;-63
2024/01/25 01:30:14;;;;;;;1.03;0.60;;;9.60;99.90;;;;;;5026062;28;20647;-64
2024/01/25 01:32:42;;;;;;;0.50;0.30;;;;;;;;;;5023728;28;20251;-64
2024/01/25 01:35:09;;;;;;;1.10;0.40;;;;;;;;;;5024504;28;20630;-62
2024/01/25 01:37:36;;;;;;;1.30;0.10;;;;;;;;;;5024134;28;20224;-64
2024/01/25 01:40:05;;;;;;;0.10;0.10;;;;;;;;;;5032665;28;20210;-63
2024/01/25 01:42:33;;;;;;;0.40;0.10;;;9.80;99.90;;;;;;5031533;28;20303;-63
2024/01/25 01:45:00;;;;;;;0.30;0.10;;;9.90;99.90;;;;;;5033376;28;20210;-64
2024/01/25 01:47:27;;;;;;;0.33;0.10;;;;;;;;;;5025528;28;20604;-63
2024/01/25 01:49:55;;;;;;;5.20;0.30;;;;;;;;;;5024878;28;20202;-64
2024/01/25 01:52:22;;;;;;;0.90;0.33;;;;;;;;;;5033120;28;20208;-63
2024/01/25 01:54:50;;;;;;;1.10;0.27;;;;;;;;;;5034016;28;20200;-63
2024/01/25 01:57:21;;;;;;;2.43;0.57;;;;;;;;;;5032833;28;20229;-63
2024/01/25 01:59:49;;;;;;;2.10;0.10;;;;;;;;;;5020689;28;20201;-64
2024/01/25 02:02:17;;;;;;;1.23;0.10;;;;;;;;;;5022520;28;20208;-63
2024/01/25 02:04:44;;;;;;;1.10;0.10;;;;;;;;;;5012103;28;20205;-63
2024/01/25 02:07:15;;;;;;;0.10;0.10;;;;;;;;;;5012974;28;20241;-63
2024/01/25 02:09:43;;;;;;;1.13;0.17;;;;;;;;;;5012963;28;20625;-64
2024/01/25 02:12:10;;;;;;;1.17;0.20;;;;;;;;;;5010564;28;20735;-63
2024/01/25 02:14:38;;;;;;;1.17;0.40;;;;;;;;;;5021326;28;20733;-63
2024/01/25 02:17:06;;;;;;;0.20;0.10;;;;;;;;;;5024688;28;20279;-63
2024/01/25 02:19:33;;;;;;;2.80;0.10;;;;;;;;;;5012613;28;20201;-63
2024/01/25 02:22:00;;;;;;;1.53;0.10;;;;;;;;;;5012105;28;20205;-63
2024/01/25 02:24:29;;;;;;;0.63;0.13;;;;;;;;;;5010101;28;20212;-63
2024/01/25 02:26:57;;;;;;;1.37;0.57;;;;;;;;;;5023798;28;20274;-63
2024/01/25 02:29:24;;;;;;;0.23;0.03;;;;;;;;;;4997630;28;20221;-65
2024/01/25 02:31:51;;;;;;;0.33;0.10;;;;;;;;;;5021362;28;20233;-63
2024/01/25 02:34:19;;;;;;;2.50;0.40;;;;;;;;;;5025506;28;20261;-63
2024/01/25 02:36:46;;;;;;;0.80;0.30;;;;;;;;;;5018886;28;20706;-63
2024/01/25 02:39:13;;;;;;;0.27;0.20;;;;;;;;;;5014268;28;20199;-64
2024/01/25 02:41:42;;;;;;;0.80;0.20;;;;;;;;;;5023176;28;20198;-63
2024/01/25 02:44:10;;;;;;;1.90;0.20;;;;;;;;;;5012135;28;20213;-63
2024/01/25 02:46:37;;;;;;;0.23;0.23;;;;;;;;;;5012158;28;20266;-63
2024/01/25 02:49:05;;;;;;;2.13;0.20;;;;;;;;;;5012367;28;20273;-63
2024/01/25 02:51:32;;;;;;;1.47;0.20;;;;;;;;;;5017769;28;20283;-63
2024/01/25 02:53:59;;;;;;;1.27;0.30;;;;;;;;;;5023620;28;20209;-63
2024/01/25 02:56:33;;;;;;;0.80;0.20;;;;;;;;;;5019649;28;20201;-63
2024/01/25 02:59:01;;;;;;;1.70;0.20;;;;;;;;;;5019240;28;20233;-64
2024/01/25 03:01:29;;;;;;;0.20;0.20;;;;;;;;;;5026889;28;20201;-63
2024/01/25 03:03:56;;;;;;;2.70;0.37;;;;;;;;;;5024367;28;20625;-64
2024/01/25 03:06:23;;;;;;;1.53;0.30;;;;;;;;;;5026644;28;20904;-63
2024/01/25 03:08:50;;;;;;;0.33;0.30;;;;;;;;;;5031543;28;20220;-64
2024/01/25 03:11:18;;;;;;;0.13;0.13;;;;;;;;;;5008612;28;20198;-64
2024/01/25 03:13:45;;;;;;;2.93;1.03;;;;;;;;;;4990203;28;20208;-63
2024/01/25 03:16:14;;;;;;;3.13;0.40;;;;;;;;;;5005576;28;20204;-63
2024/01/25 03:18:41;;;;;;;2.60;0.47;;;9.30;99.90;;;;;;5027458;28;20267;-64
2024/01/25 03:21:08;;;;;;;0.20;0.10;;;;;;;;;;5035136;28;20635;-64
2024/01/25 03:23:35;;;;;;;0.20;0.20;;;;;;;;;;5028394;28;20199;-63
2024/01/25 03:26:03;;;;;;;1.00;0.33;;;;;;;;;;5015963;28;20344;-64
2024/01/25 03:28:30;;;;;;;1.23;0.20;;;;;;;;;;5008076;28;20720;-63
2024/01/25 03:30:58;;;;;;;2.10;0.20;;;;;;;;;;5026869;28;20258;-64
2024/01/25 03:33:28;;;;;;;2.17;0.30;;;;;;;;;;5035728;28;20205;-64
2024/01/25 03:35:55;;;;;;;1.13;0.30;;;;;;;;;;5035731;28;20216;-64
2024/01/25 03:38:22;;;;;;;1.13;0.40;;;;;;;;;;5024011;28;20222;-64
2024/01/25 03:40:50;;;;;;;2.30;0.40;;;;;;;;;;5014727;28;20555;-64
2024/01/25 03:43:18;;;;;;;4.00;0.57;;;;;;;;;;5026088;28;20660;-63
2024/01/25 03:45:45;;;;;;;4.20;0.50;;;;;;;;;;5035274;28;20262;-64
2024/01/25 03:48:12;;;;;;;1.87;0.30;;;;;;;;;;5035296;28;20272;-65
2024/01/25 03:50:41;;;;;;;0.67;0.33;;;;;;;;;;5030224;28;20267;-64
2024/01/25 03:53:08;;;;;;;1.07;0.50;;;;;;;;;;5026774;28;20258;-64
2024/01/25 03:55:35;;;;;;;2.73;0.50;;;;;;;;;;5035263;28;20204;-64
2024/01/25 03:58:02;;;;;;;1.47;0.70;;;;;;;;;;5035104;28;20374;-65
2024/01/25 04:00:30;;;;;;;2.27;0.53;;;;;;;;;;5019431;28;20209;-65
2024/01/25 04:02:57;;;;;;;2.40;1.03;;;;;;;;;;5025405;28;20197;-64
2024/01/25 04:05:26;;;;;;;0.40;0.30;;;;;;;;;;5030463;28;20251;-64
2024/01/25 04:07:55;;;;;;;0.93;0.37;;;;;;;;;;5015150;28;20713;-64
2024/01/25 04:10:22;;;;;;;0.93;0.40;;;;;;;;;;5015038;28;20229;-64
2024/01/25 04:12:49;;;;;;;0.70;0.70;;;;;;;;;;5012724;28;20200;-64
2024/01/25 04:15:16;;;;;;;0.80;0.63;;;;;;;;;;5026312;28;20671;-64
2024/01/25 04:17:44;;;;;;;1.23;1.13;;;;;;;;;;5034699;28;20282;-65
2024/01/25 04:20:11;;;;;;;0.77;0.30;;;;;;;;;;5023622;28;20202;-65
2024/01/25 04:22:38;;;;;;;0.60;0.40;;;;;;;;;;5014185;28;20205;-64
2024/01/25 04:25:07;;;;;;;1.73;0.33;;;;;;;;;;5012987;28;20209;-64
2024/01/25 04:27:35;;;;;;;0.80;0.30;;;;;;;;;;5021733;28;20600;-65
2024/01/25 04:30:03;;;;;;;1.17;0.77;;;;;;;;;;5034367;28;20225;-64
2024/01/25 04:32:30;;;;;;;0.93;0.53;;;;;;;;;;5033613;28;20204;-64
2024/01/25 04:34:58;;;;;;;0.90;0.40;;;;;;;;;;5013624;28;20664;-64
2024/01/25 04:37:25;;;;;;;3.03;0.50;;;;;;;;;;5028500;28;20240;-65
2024/01/25 04:39:52;;;;;;;1.40;0.30;;;;;;;;;;5023438;28;20259;-64
2024/01/25 04:42:21;;;;;;;1.10;0.40;;;;;;;;;;5033819;28;20208;-64
2024/01/25 04:44:48;;;;;;;1.43;0.50;;;;;;;;;;5034186;28;20285;-64
2024/01/25 04:47:15;;;;;;;0.57;0.30;;;;;;;;;;5034017;28;20226;-64
2024/01/25 04:49:43;;;;;;;0.57;0.43;;;;;;;;;;5028884;28;20225;-64
2024/01/25 04:52:10;;;;;;;0.63;0.30;;;;;;;;;;5024845;28;20565;-65
2024/01/25 04:54:37;;;;;;;1.93;0.80;;;;;;;;;;5014056;28;20213;-65
2024/01/25 04:57:06;;;;;;;0.20;0.20;;;;;;;;;;5014171;28;20233;-65
2024/01/25 04:59:35;;;;;;;0.93;0.27;;;;;;;;;;5013193;28;20204;-61
2024/01/25 05:02:02;;;;;;;2.07;0.20;;;;;;;;;;5016267;28;20207;-64
2024/01/25 05:04:31;;;;;;;2.20;0.30;;;;;;;;;;5022219;28;20260;-61
2024/01/25 05:06:58;;;;;;;1.93;0.30;;;;;;;;;;5014102;28;20601;-62
2024/01/25 05:09:25;;;;;;;0.30;0.30;;;8.90;99.90;;;;;;5006881;28;20616;-61
2024/01/25 05:11:58;;;;;;;2.33;0.77;;;;;;;;;;4996042;28;20206;-62
2024/01/25 05:14:25;;;;;;;0.40;0.40;;;;;;;;;;5014417;28;20577;-61
2024/01/25 05:16:53;;;;;;;2.87;0.50;;;8.80;99.90;;;;;;5000394;28;20288;-62
2024/01/25 05:19:20;;;;;;;1.80;0.53;;;;;;;;;;5012191;28;20198;-63
2024/01/25 05:21:48;;;;;;;1.27;0.60;;;;;;;;;;5006848;28;20271;-62
2024/01/25 05:24:15;;;;;;;0.60;0.60;;;;;;;;;;5009657;28;20806;-62
2024/01/25 05:26:42;;;;;;;1.60;0.80;;;;;;;;;;4999887;28;20224;-62
2024/01/25 05:29:09;;;;;;;1.57;0.90;;;;;;;;;;5003245;28;20225;-61
2024/01/25 05:31:37;;;;;;;1.60;1.23;;;;;;;;;;5001148;28;20250;-61
2024/01/25 05:34:06;;;;;;;1.90;1.20;;;;;;;;;;5002392;28;20213;-62
2024/01/25 05:36:33;;;;;;;1.37;1.27;;;;;;;;;;4997243;28;20217;-62
2024/01/25 05:39:06;;;;;;;1.23;0.60;;;;;;;;;;5012808;28;20669;-62
2024/01/25 05:41:34;;;;;;;0.50;0.50;;;;;;;;;;5011840;28;20232;-62
2024/01/25 05:44:01;;;;;;;1.43;0.40;;;;;;;;;;5013071;28;20236;-62
2024/01/25 05:46:29;;;;;;;0.87;0.30;;;;;;;;;;5000426;28;20203;-62
2024/01/25 05:48:56;;;;;;;1.53;0.30;;;;;;;;;;5003209;28;20352;-62
2024/01/25 05:51:25;;;;;;;0.40;0.40;;;;;;;;;;4997724;28;20261;-62
2024/01/25 05:53:52;;;;;;;1.03;0.60;;;;;;;;;;5011470;28;20209;-62
2024/01/25 05:56:19;;;;;;;0.67;0.67;;;;;;;;;;4998346;28;20206;-62
2024/01/25 05:58:47;;;;;;;1.10;0.33;;;;;;;;;;4999952;28;20284;-62
2024/01/25 06:01:14;;;;;;;1.10;0.30;;;;;;;;;;4992623;28;20206;-62
2024/01/25 06:03:41;;;;;;;2.30;0.33;;;8.80;99.90;;;;;;5009211;28;20205;-62
2024/01/25 06:06:08;;;;;;;0.40;0.30;;;8.80;99.90;;;;;;5007282;28;20574;-61
2024/01/25 06:08:37;;;;;;;0.50;0.40;;;8.90;99.90;;;;;;5012296;28;20770;-62
2024/01/25 06:11:04;;;;;;;0.70;0.70;;;;;;;;;;5003213;28;20225;-62
2024/01/25 06:13:32;;;;;;;0.50;0.50;;;8.80;99.90;;;;;;4993649;28;20209;-62
2024/01/25 06:15:59;;;;;;;0.87;0.60;;;8.80;99.90;;;;;;5012262;28;20267;-62
2024/01/25 06:18:27;;;;;;;1.60;1.10;;;;;;;;;;5001161;28;20230;-62
2024/01/25 06:20:54;;;;;;;2.70;2.00;;;;;;;;;;5011057;28;20255;-62
2024/01/25 06:23:22;;;;;;;1.53;1.17;;;;;;;;;;5004061;28;20202;-62
2024/01/25 06:25:50;;;;;;;1.60;1.43;;;;;;;;;;5004221;28;20209;-61
2024/01/25 06:28:19;;;;;;;1.20;1.00;;;;;;;;;;5003637;28;20228;-61
2024/01/25 06:30:46;;;;;;;0.90;0.90;;;;;;;;;;4994801;28;20276;-62
2024/01/25 06:33:13;;;;;;;2.77;2.57;;;;;;;;;;5005088;28;20370;-62
2024/01/25 06:35:41;;;;;;;1.43;1.20;;;;;;;;;;5011938;28;20252;-62
2024/01/25 06:38:08;;;;;;;1.90;1.13;;;;;;;;;;5012274;28;20225;-62
2024/01/25 06:40:35;;;;;;;1.30;1.20;;;;;;;;;;5012414;28;20206;-62
2024/01/25 06:43:04;;;;;;;2.57;1.20;;;;;;;;;;5012854;28;20642;-62
2024/01/25 06:45:31;;;;;;;3.40;0.70;;;;;;;;;;5008033;28;20285;-62
2024/01/25 06:47:59;;;;;;;1.27;1.17;;;;;;;;;;5011062;28;20229;-62
2024/01/25 06:50:26;;;;;;;5.63;0.97;;;;;;;;;;5010329;28;20236;-62
2024/01/25 06:52:55;;;;;;;2.40;1.10;;;;;;;;;;4999875;28;20233;-62
2024/01/25 06:55:22;;;;;;;3.90;0.80;;;;;;;;;;5012391;28;20598;-62
2024/01/25 06:57:49;;;;;;;2.40;2.20;;;;;;;;;;5009125;28;20231;-62
2024/01/25 07:00:20;;;;;;;4.43;2.20;;;;;;;;;;5005255;28;20250;-62
2024/01/25 07:02:47;;;;;;;2.13;1.33;;;;;;;;;;5001158;28;20202;-62
2024/01/25 07:05:15;;;;;;;4.00;0.83;;;;;;;;;;5011562;28;20266;-62
2024/01/25 07:07:42;;;;;;;3.40;1.57;;;;;;;;;;5011995;28;20237;-63
2024/01/25 07:10:10;;;;;;;2.30;0.83;;;;;;;;;;5009837;28;20227;-62
2024/01/25 07:12:37;;;;;;;2.13;1.10;;;;;;;;;;5009369;28;20628;-63
2024/01/25 07:15:05;;;;;;;3.13;1.00;;;;;;;;;;5008215;28;20228;-62
2024/01/25 07:17:33;;;;;;;1.47;0.70;;;;;;;;;;5011813;28;20295;-62
2024/01/25 07:20:01;;;;;;;4.90;1.67;;;;;;;;;;5009882;28;20284;-65
2024/01/25 07:22:28;;;;;;;4.73;1.50;;;;;;;;;;5010489;28;20288;-63
2024/01/25 07:24:55;;;;;;;2.60;1.90;;;8.40;99.90;;;;;;5008202;28;20205;-63
2024/01/25 07:27:23;;;;;;;2.77;0.83;;;;;;;;;;5005364;28;20225;-66
2024/01/25 07:29:50;;;;;;;4.63;0.90;;;;;;;;;;5007993;28;20213;-63
2024/01/25 07:32:18;;;;;;;5.07;1.00;;;;;;;;;;5008607;28;20725;-63
2024/01/25 07:34:47;;;;;;;2.27;1.57;;;;;;;;;;5008239;28;20249;-63
2024/01/25 07:37:18;;;;;;;4.73;1.47;;;8.20;99.90;;;;;;5009478;28;20233;-63
2024/01/25 07:39:45;;;;;;;1.27;0.90;;;;;;;;;;5007718;28;20202;-65
2024/01/25 07:42:17;;;;;;;7.20;1.77;;;;;;;;;;5002618;28;20589;-64
2024/01/25 07:44:45;;;;;;;3.53;1.70;;;;;;;;;;5011090;28;20198;-64
2024/01/25 07:47:14;;;;;;;3.87;2.20;;;;;;;;;;5000105;28;20270;-65
2024/01/25 07:49:42;;;;;;;5.07;1.27;;;;;;;;;;5000309;28;20225;-64
2024/01/25 07:52:10;;;;;;;1.77;0.90;;;;;;;;;;5010650;28;20209;-64
2024/01/25 07:54:38;;;;;;;6.53;2.60;;;;;;;;;;5011220;28;20208;-64
2024/01/25 07:57:05;;;;;;;3.00;0.90;;;;;;;;;;5012736;28;20784;-64
2024/01/25 07:59:32;;;;;;;1.63;1.00;;;;;;;;;;5011007;28;20279;-65
2024/01/25 08:02:00;;;;;;;2.00;1.10;;;;;;;;;;5002939;28;20210;-64
2024/01/25 08:04:27;;;;;;;4.90;2.57;;;;;;;;;;5014045;28;20243;-65
2024/01/25 08:06:54;;;;;;;3.43;1.20;;;;;;;;;;5016205;28;20233;-64
2024/01/25 08:09:23;;;;;;;2.20;0.60;;;;;;;;;;5015096;28;20197;-64
2024/01/25 08:11:51;;;;;;;3.23;1.33;;;;;;;;;;5013816;28;20221;-64
2024/01/25 08:14:19;;;;;;;4.43;0.90;;;;;;;;;;5016822;28;20275;-65
2024/01/25 08:16:46;;;;;;;0.83;0.70;;;;;;;;;;5012827;28;20224;-64
2024/01/25 08:19:13;;;;;;;1.67;1.30;;;;;;;;;;5014817;28;20670;-64
2024/01/25 08:21:40;;;;;;;1.30;0.73;;;;;;;;;;5013725;28;20257;-63
2024/01/25 08:24:08;;;;;;;1.10;0.60;;;;;;;;;;5014802;28;20199;-64
2024/01/25 08:26:37;;;;;;;1.40;0.77;;;;;;;;;;5012978;28;20206;-65
2024/01/25 08:29:04;;;;;;;0.97;0.40;;;;;;;;;;5013631;28;20744;-64
2024/01/25 08:31:31;;;;;;;0.93;0.40;;;;;;;;;;5013601;28;20272;-64
2024/01/25 08:33:59;;;;;;;1.87;0.70;;;;;;;;;;5013833;28;20213;-64
2024/01/25 08:36:26;;;;;;;3.63;2.83;;;;;;;;;;5014174;28;20661;-64
2024/01/25 08:38:54;;;;;;;2.00;0.60;;;;;;;;;;5014381;28;20624;-65
2024/01/25 08:41:21;;;;;;;2.23;1.73;;;;;;;;;;5013608;28;20199;-64
2024/01/25 08:43:49;;;;;;;2.23;0.60;;;;;;;;;;5014334;28;20212;-64
2024/01/25 08:46:17;;;;;;;1.37;0.30;;;;;;;;;;5017058;28;20803;-64
2024/01/25 08:48:44;;;;;;;1.80;0.30;;;;;;;;;;5014158;28;20283;-65
2024/01/25 08:51:11;;;;;;;2.00;0.43;;;;;;;;;;5010185;28;20712;-65
2024/01/25 08:53:38;;;;;;;0.70;0.70;;;;;;;;;;5007431;28;20255;-65
2024/01/25 08:56:06;;;;;;;0.70;0.70;;;;;;;;;;5005450;28;20260;-65
2024/01/25 08:58:33;;;;;;;1.57;0.97;;;;;;;;;;5016541;28;20277;-66
2024/01/25 09:01:02;;;;;;;3.30;1.20;;;;;;;;;;5020121;28;20261;-65
2024/01/25 09:03:29;;;;;;;0.90;0.77;;;;;;;;;;5011712;28;20204;-64
2024/01/25 09:05:56;;;;;;;1.37;0.50;;;;;;;;;;5005311;28;20206;-65
2024/01/25 09:08:24;;;;;;;2.23;1.97;;;;;;;;;;5011715;28;20229;-65
2024/01/25 09:10:51;;;;;;;2.13;1.40;;;;;;;;;;5011010;28;20219;-65
2024/01/25 09:13:18;;;;;;;4.33;1.33;;;;;;;;;;5012237;28;20210;-65
2024/01/25 09:15:46;;;;;;;1.63;0.60;;;;;;;;;;5012538;28;20208;-65
2024/01/25 09:18:15;;;;;;;1.37;1.10;;;;;;;;;;5010504;28;20306;-66
2024/01/25 09:20:47;;;;;;;1.93;0.93;;;;;;;;;;5009835;28;20248;-65
2024/01/25 09:23:15;;;;;;;4.60;4.20;;;;;;;;;;5004967;28;20228;-65
2024/01/25 09:25:42;;;;;;;3.47;2.00;;;;;;;;;;5012539;28;20205;-65
2024/01/25 09:28:11;;;;;;;1.80;1.70;;;;;;;;;;5012650;28;20302;-64
2024/01/25 09:30:39;;;;;;;2.07;0.97;;;;;;;;;;5012507;28;20225;-65
2024/01/25 09:33:06;;;;;;;2.33;2.13;;;;;;;;;;5009613;28;20717;-65
2024/01/25 09:35:35;;;;;;;7.20;5.73;;;;;;;;;;5012746;28;20205;-64
2024/01/25 09:38:02;;;;;;;1.67;1.57;;;;;;;;;;5008124;28;20221;-65
2024/01/25 09:40:30;;;;;;;3.23;1.40;;;;;;;;;;5007292;28;20229;-65
2024/01/25 09:42:58;;;;;;;3.07;1.33;;;;;;;;;;5010431;28;20290;-64
2024/01/25 09:45:26;;;;;;;1.90;0.77;;;;;;;;;;5012186;28;20247;-64
2024/01/25 09:47:53;;;;;;;2.40;0.60;;;;;;;;;;5011710;28;20636;-64
2024/01/25 09:50:21;;;;;;;0.60;0.50;;;;;;;;;;5011910;28;20730;-65
2024/01/25 09:52:55;;;;;;;0.43;0.33;;;;;;;;;;5003104;28;20203;-65
2024/01/25 09:55:26;;;;;;;0.83;0.50;;;;;;;;;;5012772;28;20201;-65
2024/01/25 09:57:55;;;;;;;2.63;1.07;;;;;;;;;;4998989;28;20265;-65
2024/01/25 10:00:22;;;;;;;4.10;2.00;;;;;;;;;;5002039;28;20228;-65
2024/01/25 10:02:50;;;;;;;1.00;0.90;;;;;;;;;;5001035;28;20268;-65
2024/01/25 10:05:18;;;;;;;0.80;0.73;;;;;;;;;;5007335;28;20197;-64
2024/01/25 10:07:46;;;;;;;0.73;0.50;;;;;;;;;;5004025;28;20240;-65
2024/01/25 10:10:15;;;;;;;1.23;0.50;;;;;;;;;;4996428;28;20204;-64
2024/01/25 10:12:43;;;;;;;1.57;0.60;;;;;;;;;;4999226;28;20202;-63
2024/01/25 10:15:11;;;;;;;1.27;0.40;;;;;;;;;;5008600;28;20263;-64
2024/01/25 10:17:38;;;;;;;1.57;0.40;;;;;;;;;;5001653;28;20789;-64
2024/01/25 10:20:10;;;;;;;1.50;0.93;;;;;;;;;;5003961;28;20236;-64
2024/01/25 10:22:38;;;;;;;2.27;2.13;;;;;;;;;;4998570;28;20204;-64
2024/01/25 10:25:06;;;;;;;2.13;1.40;;;;;;;;;;4997332;28;20210;-65
2024/01/25 10:27:35;;;;;;;1.00;0.70;;;;;;;;;;5003042;28;20442;-71
2024/01/25 10:30:04;;;;;;;2.00;1.90;;;;;;;;;;5003011;28;20264;-69
2024/01/25 10:32:31;;;;;;;1.40;1.30;;;;;;;;;;4992839;28;20269;-75
2024/01/25 10:35:00;;;;;;;1.47;1.00;;;;;;;;;;4997656;28;20613;-74
2024/01/25 10:37:29;;;;;;;0.70;0.60;;;;;;;;;;5004021;28;20282;-75
2024/01/25 10:39:56;;;;;;;1.13;1.03;;;;;;;;;;5000508;28;20197;-76
2024/01/25 10:42:23;;;;;;;0.80;0.80;;;;;;;;;;4996598;28;20666;-76
2024/01/25 10:44:52;;;;;;;0.93;0.50;;;;;;;;;;4998491;28;20884;-76
2024/01/25 10:47:24;;;;;;;0.70;0.50;;;;;;;;;;5000702;28;20279;-75
2024/01/25 10:49:51;;;;;;;0.93;0.40;;;;;;;;;;5005186;28;20217;-68
2024/01/25 10:52:19;;;;;;;0.53;0.53;;;;;;;;;;4999744;28;20283;-67
2024/01/25 10:54:47;;;;;;;1.57;1.33;;;;;;;;;;5002510;28;20231;-63
2024/01/25 10:57:14;;;;;;;1.17;1.10;;;;;;;;;;4992282;28;20218;-68
2024/01/25 10:59:42;;;;;;;1.37;1.00;;;;;;;;;;4993842;28;20262;-64
2024/01/25 11:02:10;;;;;;;0.60;0.33;;;;;;;;;;5026759;23;20284;-70
2024/01/25 11:04:38;;;;;;;0.20;0.20;;;;;;;;;;5023344;28;20577;-69
2024/01/25 11:07:09;;;;;;;0.23;0.23;;;;;;;;;;5016192;28;20206;-70
2024/01/25 11:09:37;;;;;;;0.50;0.00;;;;;;;;;;5011523;28;20208;-67
2024/01/25 11:12:16;;;;;;;0.27;0.20;;;;;;;;;;5013862;28;20384;-69
2024/01/25 11:14:43;;;;;;;0.20;0.20;;;;;;;;;;5014406;28;20202;-69
2024/01/25 11:17:20;;;;;;;0.30;0.30;;;;;;;;;;5023726;28;20572;-68
2024/01/25 11:19:48;;;;;;;0.97;0.63;;;;;;;;;;5024729;28;20233;-68
2024/01/25 11:22:15;;;;;;;4.03;2.87;;;;;;;;;;5012669;28;20228;-67
2024/01/25 11:24:43;;;;;;;13.73;5.80;;;;;;;;;;5017980;28;20613;-67
2024/01/25 11:27:10;;;;;;;4.80;2.30;;;;;;;;;;5018652;28;20731;-66
2024/01/25 11:29:39;;;;;;;12.00;3.53;;;;;;;;;;5014321;28;20227;-66
2024/01/25 11:32:07;;;;;;;1.57;0.93;;;;;;;;;;5017286;28;20280;-68
2024/01/25 11:34:36;;;;;;;3.17;2.97;;;;;;;;;;5024975;28;20286;-66
2024/01/25 11:37:03;;;;;;;4.90;3.30;;;;;;;;;;5020448;28;20255;-66
2024/01/25 11:39:30;;;;;;;1.00;0.97;;;;;;;;;;5030312;28;20194;-66
2024/01/25 11:41:57;;;;;;;1.30;1.17;;;;;;;;;;5033356;28;20216;-65
2024/01/25 11:44:25;;;;;;;0.73;0.20;;;;;;;;;;5032098;28;20589;-66
2024/01/25 11:46:52;;;;;;;0.40;0.20;;;;;;;;;;5034130;28;20215;-65
2024/01/25 11:49:19;;;;;;;0.30;0.10;;;;;;;;;;5021003;28;20612;-66
2024/01/25 11:51:48;;;;;;;0.10;0.10;;;;;;;;;;5013675;28;20223;-66
2024/01/25 11:54:15;;;;;;;0.87;0.20;;;;;;;;;;5023380;28;20203;-65
2024/01/25 11:56:44;;;;;;;0.20;0.20;;;;;;;;;;5021366;28;20196;-65
2024/01/25 11:59:12;;;;;;;0.70;0.10;;;;;;;;;;5022627;28;20278;-64
2024/01/25 12:01:39;;;;;;;2.10;0.17;;;;;;;;;;5019801;28;20237;-64
2024/01/25 12:04:07;;;;;;;1.20;0.63;;;;;;;;;;5018845;28;20677;-65
2024/01/25 12:06:34;;;;;;;2.27;0.50;;;;;;;;;;5028688;28;20209;-67
2024/01/25 12:09:10;;;;;;;1.13;1.03;;;;;;;;;;5024109;28;20209;-65
2024/01/25 12:11:37;;;;;;;0.50;0.27;;;;;;;;;;5022197;28;20225;-63
2024/01/25 12:14:04;;;;;;;0.30;0.30;;;;;;;;;;5015732;28;20680;-70
2024/01/25 12:16:32;;;;;;;0.20;0.20;;;;;;;;;;5023011;28;20289;-68
2024/01/25 12:19:00;;;;;;;0.10;0.10;;;;;;;;;;5022851;28;20220;-69
2024/01/25 12:21:27;;;;;;;0.07;0.07;;;;;;;;;;5014099;28;20648;-70
2024/01/25 12:23:54;;;;;;;0.10;0.10;;;;;;;;;;5024703;28;20248;-72
2024/01/25 12:26:23;;;;;;;0.10;0.10;;;;;;;;;;5014012;28;20209;-68
2024/01/25 12:28:50;;;;;;;0.37;0.10;;;;;;;;;;5021084;28;20208;-70
2024/01/25 12:31:17;;;;;;;3.73;0.10;;;;;;;;;;5020152;28;20702;-71
2024/01/25 12:33:45;;;;;;;0.70;0.30;;;;;;;;;;5028734;28;20259;-72
2024/01/25 12:36:12;;;;;;;0.53;0.20;;;;;;;;;;5024328;28;20220;-74
2024/01/25 12:38:39;;;;;;;0.90;0.07;;;;;;;;;;5033623;28;20553;-74
2024/01/25 12:41:07;;;;;;;0.57;0.27;;;;;;;;;;5024321;28;20738;-75
2024/01/25 12:43:35;;;;;;;0.33;0.00;;;;;;;;;;5025072;28;20635;-71
2024/01/25 12:46:02;;;;;;;0.30;0.10;;;;;;;;;;5033039;28;20275;-73
2024/01/25 12:48:30;;;;;;;0.20;0.20;;;;;;;;;;5025000;28;20199;-72
2024/01/25 12:50:57;;;;;;;0.40;0.10;;;;;;;;;;5015442;28;20208;-72
2024/01/25 12:53:24;;;;;;;0.50;0.00;;;;;;;;;;5013049;28;20221;-74
2024/01/25 12:55:52;;;;;;;0.00;0.00;;;;;;;;;;5013483;28;20637;-71
2024/01/25 12:58:19;;;;;;;0.20;0.00;;;;;;;;;;5023767;28;20205;-71
2024/01/25 13:00:48;;;;;;;0.30;0.10;;;;;;;;;;5016850;28;20206;-72
2024/01/25 13:03:15;;;;;;;0.10;0.10;;;;;;;;;;5012719;28;20230;-70
2024/01/25 13:05:42;;;;;;;0.33;0.00;;;;;;;;;;5014036;28;20206;-72
2024/01/25 13:08:09;;;;;;;0.00;0.00;;;;;;;;;;5029832;28;20205;-67
2024/01/25 13:10:37;;;;;;;0.00;0.00;;;;;;;;;;5024665;28;20230;-69
2024/01/25 13:13:05;;;;;;;0.30;0.10;;;;;;;;;;5032338;28;20643;-73
2024/01/25 13:15:32;;;;;;;0.87;0.23;;;;;;;;;;5013680;28;20217;-74
2024/01/25 13:18:01;;;;;;;0.73;0.20;;;;;;;;;;5019990;28;20209;-66
2024/01/25 13:20:28;;;;;;;0.10;0.03;;;;;;;;;;5018677;28;20290;-66
2024/01/25 13:22:55;;;;;;;1.70;0.10;;;;;;;;;;5011946;28;20222;-71
2024/01/25 13:25:23;;;;;;;0.27;0.17;;;;;;;;;;5012930;28;20206;-64
2024/01/25 13:27:50;;;;;;;0.93;0.27;;;;;;;;;;5021607;28;20197;-64
2024/01/25 13:30:17;;;;;;;2.43;0.30;;;;;;;;;;5025403;28;20204;-64
2024/01/25 13:32:44;;;;;;;0.50;0.30;;;;;;;;;;5030287;28;20232;-65
2024/01/25 13:35:13;;;;;;;0.37;0.30;;;;;;;;;;5020659;28;20251;-66
2024/01/25 13:37:40;;;;;;;2.27;0.27;;;;;;;;;;5021127;28;20597;-65
2024/01/25 13:40:08;;;;;;;3.90;0.20;;;;;;;;;;5022865;28;20213;-68
2024/01/25 13:42:35;;;;;;;0.10;0.10;;;;;;;;;;5020191;28;20284;-62
2024/01/25 13:45:03;;;;;;;5.30;0.10;;;;;;;;;;5015425;28;20271;-62
2024/01/25 13:47:30;;;;;;;1.13;0.10;;;;;;;;;;5018361;28;20289;-72
2024/01/25 13:49:57;;;;;;;0.60;0.20;;;;;;;;;;5021388;28;20202;-68
2024/01/25 13:52:26;;;;;;;0.83;0.50;;;;;;;;;;5028804;28;20255;-69
2024/01/25 13:54:54;;;;;;;0.30;0.20;;;;;;;;;;5020251;28;20212;-68
2024/01/25 13:57:23;;;;;;;1.10;0.30;;;;;;;;;;5028959;28;20201;-69
2024/01/25 13:59:50;;;;;;;0.57;0.57;;;;;;;;;;5019053;28;20572;-75
2024/01/25 14:02:18;;;;;;;0.47;0.47;;;;;;;;;;5014154;28;20317;-71
2024/01/25 14:04:46;;;;;;;0.43;0.40;;;;;;;;;;5016504;28;20205;-72
2024/01/25 14:07:17;;;;;;;1.10;1.00;;;;;;;;;;5027027;28;20217;-72
2024/01/25 14:09:46;;;;;;;0.53;0.50;;;;;;;;;;5018640;28;20762;-70
2024/01/25 14:12:18;;;;;;;2.23;0.90;;;;;;;;;;5017431;28;20224;-71
2024/01/25 14:14:45;;;;;;;0.90;0.90;;;;;;;;;;5018507;28;20202;-71
2024/01/25 14:17:13;;;;;;;4.20;2.53;;;;;;;;;;5020399;28;20216;-70
2024/01/25 14:19:40;;;;;;;5.90;5.30;;;;;;;;;;5022613;28;20304;-68
2024/01/25 14:22:07;;;;;;;3.23;3.03;;;;;;;;;;5020621;28;20274;-69
2024/01/25 14:24:34;;;;;;;8.10;4.27;;;;;;;;;;5018014;28;20197;-70
2024/01/25 14:27:03;;;;;;;3.47;2.00;;;;;;;;;;5024395;28;20800;-76
2024/01/25 14:29:33;;;;;;;1.10;0.80;;;9.30;99.90;;;;;;5012708;28;20925;-67
2024/01/25 14:32:00;;;;;;;0.63;0.60;;;9.10;99.90;;;;;;5017116;28;20725;-69
2024/01/25 14:34:27;;;;;;;12.87;5.40;;;9.10;99.90;;;;;;5026383;28;20207;-71
2024/01/25 14:36:54;;;;;;;16.03;6.10;;;;;;;;;;5014037;28;20224;-70
2024/01/25 14:39:22;;;;;;;4.30;3.90;;;;;;;;;;5021205;28;20643;-70